sensor_id;sensor_type;location;lat;lon;timestamp;temperature;humidity
24085;DHT22;12268;52.110;5.548;2023-06-14T07:07:22;22.90;63.50
24085;DHT22;12268;52.110;5.548;2023-06-14T07:09:47;23.00;64.30
24085;DHT22;12268;52.110;5.548;2023-06-14T07:12:13;23.30;63.50
24085;DHT22;12268;52.110;5.548;2023-06-14T07:14:38;23.50;63.10
24085;DHT22;12268;52.110;5.548;2023-06-14T07:17:04;23.50;61.50
24085;DHT22;12268;52.110;5.548;2023-06-14T07:19:30;23.60;61.60
24085;DHT22;12268;52.110;5.548;2023-06-14T07:21:56;23.90;60.40
24085;DHT22;12268;52.110;5.548;2023-06-14T07:24:23;24.00;60.30
24085;DHT22;12268;52.110;5.548;2023-06-14T07:26:49;24.30;61.10
24085;DHT22;12268;52.110;5.548;2023-06-14T07:34:25;24.80;58.80
24085;DHT22;12268;52.110;5.548;2023-06-14T07:36:51;25.10;59.50
24085;DHT22;12268;52.110;5.548;2023-06-14T07:39:17;25.20;58.40
24085;DHT22;12268;52.110;5.548;2023-06-14T07:41:42;25.00;56.80
24085;DHT22;12268;52.110;5.548;2023-06-14T07:44:08;24.90;56.30
24085;DHT22;12268;52.110;5.548;2023-06-14T07:46:33;25.20;57.80
24085;DHT22;12268;52.110;5.548;2023-06-14T07:49:00;25.60;57.80
24085;DHT22;12268;52.110;5.548;2023-06-14T07:51:25;25.90;56.30
24085;DHT22;12268;52.110;5.548;2023-06-14T07:53:51;26.40;56.00
24085;DHT22;12268;52.110;5.548;2023-06-14T07:56:16;26.80;54.20
24085;DHT22;12268;52.110;5.548;2023-06-14T07:58:42;27.60;53.80
24085;DHT22;12268;52.110;5.548;2023-06-14T08:01:08;28.20;51.10
24085;DHT22;12268;52.110;5.548;2023-06-14T08:03:34;28.20;50.90
24085;DHT22;12268;52.110;5.548;2023-06-14T08:06:00;27.70;50.30
24085;DHT22;12268;52.110;5.548;2023-06-14T08:08:26;28.40;52.00
24085;DHT22;12268;52.110;5.548;2023-06-14T08:10:52;29.80;49.00
24085;DHT22;12268;52.110;5.548;2023-06-14T08:13:17;30.70;47.40
24085;DHT22;12268;52.110;5.548;2023-06-14T08:15:43;31.50;45.80
24085;DHT22;12268;52.110;5.548;2023-06-14T08:18:09;32.50;45.20
24085;DHT22;12268;52.110;5.548;2023-06-14T08:20:35;33.10;43.20
24085;DHT22;12268;52.110;5.548;2023-06-14T08:23:02;33.20;42.60
24085;DHT22;12268;52.110;5.548;2023-06-14T08:25:29;33.50;42.10
24085;DHT22;12268;52.110;5.548;2023-06-14T08:27:55;34.00;42.30
24085;DHT22;12268;52.110;5.548;2023-06-14T08:30:21;34.80;41.60
24085;DHT22;12268;52.110;5.548;2023-06-14T08:32:47;35.60;39.90
24085;DHT22;12268;52.110;5.548;2023-06-14T08:35:12;34.40;39.00
24085;DHT22;12268;52.110;5.548;2023-06-14T08:37:41;34.30;39.50
24085;DHT22;12268;52.110;5.548;2023-06-14T08:40:18;33.90;40.80
24085;DHT22;12268;52.110;5.548;2023-06-14T08:42:45;34.50;39.90
24085;DHT22;12268;52.110;5.548;2023-06-14T08:45:12;34.70;37.90
24085;DHT22;12268;52.110;5.548;2023-06-14T08:47:38;35.20;38.30
24085;DHT22;12268;52.110;5.548;2023-06-14T08:50:05;35.40;38.50
24085;DHT22;12268;52.110;5.548;2023-06-14T08:52:33;35.90;38.40
24085;DHT22;12268;52.110;5.548;2023-06-14T08:55:06;34.80;38.20
24085;DHT22;12268;52.110;5.548;2023-06-14T08:57:32;34.90;38.00
24085;DHT22;12268;52.110;5.548;2023-06-14T09:00:01;35.30;37.20
24085;DHT22;12268;52.110;5.548;2023-06-14T09:02:30;35.90;37.50
24085;DHT22;12268;52.110;5.548;2023-06-14T09:04:56;36.20;37.60
24085;DHT22;12268;52.110;5.548;2023-06-14T09:07:24;35.60;37.50
24085;DHT22;12268;52.110;5.548;2023-06-14T09:10:08;35.10;36.30
24085;DHT22;12268;52.110;5.548;2023-06-14T09:12:34;35.30;37.10
24085;DHT22;12268;52.110;5.548;2023-06-14T09:14:59;35.70;36.00
24085;DHT22;12268;52.110;5.548;2023-06-14T09:17:25;36.70;36.90
24085;DHT22;12268;52.110;5.548;2023-06-14T09:19:51;37.10;35.50
24085;DHT22;12268;52.110;5.548;2023-06-14T09:22:17;38.20;34.10
24085;DHT22;12268;52.110;5.548;2023-06-14T09:24:42;39.20;34.00
24085;DHT22;12268;52.110;5.548;2023-06-14T09:27:08;39.60;34.30
24085;DHT22;12268;52.110;5.548;2023-06-14T09:29:33;39.20;33.10
24085;DHT22;12268;52.110;5.548;2023-06-14T09:31:59;39.80;33.40
24085;DHT22;12268;52.110;5.548;2023-06-14T09:34:24;40.00;33.70
24085;DHT22;12268;52.110;5.548;2023-06-14T09:36:50;39.30;32.70
24085;DHT22;12268;52.110;5.548;2023-06-14T09:39:17;38.90;32.60
24085;DHT22;12268;52.110;5.548;2023-06-14T09:41:43;39.40;32.60
24085;DHT22;12268;52.110;5.548;2023-06-14T09:44:10;39.20;33.20
24085;DHT22;12268;52.110;5.548;2023-06-14T09:46:37;40.90;33.10
24085;DHT22;12268;52.110;5.548;2023-06-14T09:49:04;40.60;32.30
24085;DHT22;12268;52.110;5.548;2023-06-14T09:51:30;39.20;32.30
24085;DHT22;12268;52.110;5.548;2023-06-14T09:54:00;38.30;32.50
24085;DHT22;12268;52.110;5.548;2023-06-14T09:56:31;38.70;34.10
24085;DHT22;12268;52.110;5.548;2023-06-14T09:58:59;39.50;33.40
24085;DHT22;12268;52.110;5.548;2023-06-14T10:01:26;39.90;33.60
24085;DHT22;12268;52.110;5.548;2023-06-14T10:04:05;39.50;32.40
24085;DHT22;12268;52.110;5.548;2023-06-14T10:06:31;39.20;33.80
24085;DHT22;12268;52.110;5.548;2023-06-14T10:08:58;40.80;32.10
24085;DHT22;12268;52.110;5.548;2023-06-14T10:11:27;42.30;31.90
24085;DHT22;12268;52.110;5.548;2023-06-14T10:13:57;42.30;31.70
24085;DHT22;12268;52.110;5.548;2023-06-14T10:16:34;41.80;29.90
24085;DHT22;12268;52.110;5.548;2023-06-14T10:19:25;41.10;30.40
24085;DHT22;12268;52.110;5.548;2023-06-14T10:22:16;38.50;30.00
24085;DHT22;12268;52.110;5.548;2023-06-14T10:24:44;38.10;31.30
24085;DHT22;12268;52.110;5.548;2023-06-14T10:27:13;37.60;32.00
24085;DHT22;12268;52.110;5.548;2023-06-14T10:32:24;37.20;32.50
24085;DHT22;12268;52.110;5.548;2023-06-14T10:37:22;38.00;32.90
24085;DHT22;12268;52.110;5.548;2023-06-14T10:39:48;38.30;33.70
24085;DHT22;12268;52.110;5.548;2023-06-14T10:42:14;37.60;33.70
24085;DHT22;12268;52.110;5.548;2023-06-14T10:44:44;38.10;32.70
24085;DHT22;12268;52.110;5.548;2023-06-14T10:50:14;38.10;33.20
24085;DHT22;12268;52.110;5.548;2023-06-14T10:52:43;37.40;33.50
24085;DHT22;12268;52.110;5.548;2023-06-14T10:57:40;36.60;33.80
24085;DHT22;12268;52.110;5.548;2023-06-14T11:00:08;37.10;34.90
24085;DHT22;12268;52.110;5.548;2023-06-14T11:05:28;39.90;32.10
24085;DHT22;12268;52.110;5.548;2023-06-14T11:11:13;43.60;29.70
24085;DHT22;12268;52.110;5.548;2023-06-14T11:13:41;42.10;30.10
24085;DHT22;12268;52.110;5.548;2023-06-14T11:16:11;41.80;29.70
24085;DHT22;12268;52.110;5.548;2023-06-14T11:18:37;41.00;30.50
24085;DHT22;12268;52.110;5.548;2023-06-14T11:21:02;40.40;31.50
24085;DHT22;12268;52.110;5.548;2023-06-14T11:23:28;41.10;31.90
24085;DHT22;12268;52.110;5.548;2023-06-14T11:25:54;42.70;31.20
24085;DHT22;12268;52.110;5.548;2023-06-14T11:28:19;44.00;29.60
24085;DHT22;12268;52.110;5.548;2023-06-14T11:30:47;43.30;29.80
24085;DHT22;12268;52.110;5.548;2023-06-14T11:33:17;43.40;29.70
24085;DHT22;12268;52.110;5.548;2023-06-14T11:35:44;43.30;29.80
24085;DHT22;12268;52.110;5.548;2023-06-14T11:38:10;43.40;29.50
24085;DHT22;12268;52.110;5.548;2023-06-14T11:40:38;43.40;29.70
24085;DHT22;12268;52.110;5.548;2023-06-14T11:43:04;44.40;29.90
24085;DHT22;12268;52.110;5.548;2023-06-14T11:45:30;44.20;28.80
24085;DHT22;12268;52.110;5.548;2023-06-14T11:47:58;44.70;29.10
24085;DHT22;12268;52.110;5.548;2023-06-14T11:50:24;44.90;28.80
24085;DHT22;12268;52.110;5.548;2023-06-14T11:52:58;45.10;27.90
24085;DHT22;12268;52.110;5.548;2023-06-14T11:55:25;45.30;28.30
24085;DHT22;12268;52.110;5.548;2023-06-14T11:57:51;43.90;28.80
24085;DHT22;12268;52.110;5.548;2023-06-14T12:00:18;44.30;28.70
24085;DHT22;12268;52.110;5.548;2023-06-14T12:02:56;44.10;28.50
24085;DHT22;12268;52.110;5.548;2023-06-14T12:05:22;44.70;28.60
24085;DHT22;12268;52.110;5.548;2023-06-14T12:07:49;42.40;29.30
24085;DHT22;12268;52.110;5.548;2023-06-14T12:10:16;41.90;29.60
24085;DHT22;12268;52.110;5.548;2023-06-14T12:12:42;43.20;29.40
24085;DHT22;12268;52.110;5.548;2023-06-14T12:15:09;44.20;29.00
24085;DHT22;12268;52.110;5.548;2023-06-14T12:17:36;43.50;28.50
24085;DHT22;12268;52.110;5.548;2023-06-14T12:20:10;42.10;29.00
24085;DHT22;12268;52.110;5.548;2023-06-14T12:22:37;41.90;29.00
24085;DHT22;12268;52.110;5.548;2023-06-14T12:25:04;42.80;29.20
24085;DHT22;12268;52.110;5.548;2023-06-14T12:27:30;43.00;29.50
24085;DHT22;12268;52.110;5.548;2023-06-14T12:30:03;42.40;29.10
24085;DHT22;12268;52.110;5.548;2023-06-14T12:32:28;42.60;28.70
24085;DHT22;12268;52.110;5.548;2023-06-14T12:34:54;41.90;29.20
24085;DHT22;12268;52.110;5.548;2023-06-14T12:37:20;40.70;29.70
24085;DHT22;12268;52.110;5.548;2023-06-14T12:39:45;40.30;30.20
24085;DHT22;12268;52.110;5.548;2023-06-14T12:42:11;41.70;29.60
24085;DHT22;12268;52.110;5.548;2023-06-14T12:44:38;42.90;28.80
24085;DHT22;12268;52.110;5.548;2023-06-14T12:47:06;44.20;29.00
24085;DHT22;12268;52.110;5.548;2023-06-14T12:49:33;44.00;28.90
24085;DHT22;12268;52.110;5.548;2023-06-14T12:51:58;42.20;28.70
24085;DHT22;12268;52.110;5.548;2023-06-14T12:54:24;40.80;29.70
24085;DHT22;12268;52.110;5.548;2023-06-14T12:56:51;41.90;30.30
24085;DHT22;12268;52.110;5.548;2023-06-14T12:59:17;42.20;30.10
24085;DHT22;12268;52.110;5.548;2023-06-14T13:01:43;41.80;29.70
24085;DHT22;12268;52.110;5.548;2023-06-14T13:04:09;40.20;30.30
24085;DHT22;12268;52.110;5.548;2023-06-14T13:06:35;39.30;31.20
24085;DHT22;12268;52.110;5.548;2023-06-14T13:09:01;39.50;31.90
24085;DHT22;12268;52.110;5.548;2023-06-14T13:11:27;39.00;31.40
24085;DHT22;12268;52.110;5.548;2023-06-14T13:13:52;38.80;32.30
24085;DHT22;12268;52.110;5.548;2023-06-14T13:16:18;38.30;31.80
24085;DHT22;12268;52.110;5.548;2023-06-14T13:18:43;38.60;32.80
24085;DHT22;12268;52.110;5.548;2023-06-14T13:21:09;38.10;32.00
24085;DHT22;12268;52.110;5.548;2023-06-14T13:23:34;37.10;34.40
24085;DHT22;12268;52.110;5.548;2023-06-14T13:26:00;36.00;33.00
24085;DHT22;12268;52.110;5.548;2023-06-14T13:28:25;35.20;33.40
24085;DHT22;12268;52.110;5.548;2023-06-14T13:30:51;34.60;34.40
24085;DHT22;12268;52.110;5.548;2023-06-14T13:33:16;34.00;35.40
24085;DHT22;12268;52.110;5.548;2023-06-14T13:35:42;33.80;35.90
24085;DHT22;12268;52.110;5.548;2023-06-14T13:38:09;34.40;36.20
24085;DHT22;12268;52.110;5.548;2023-06-14T13:40:36;34.10;36.00
24085;DHT22;12268;52.110;5.548;2023-06-14T13:43:01;33.70;36.10
24085;DHT22;12268;52.110;5.548;2023-06-14T13:45:27;33.60;37.00
24085;DHT22;12268;52.110;5.548;2023-06-14T13:47:53;33.50;37.50
24085;DHT22;12268;52.110;5.548;2023-06-14T13:50:20;34.10;36.80
24085;DHT22;12268;52.110;5.548;2023-06-14T13:52:45;34.40;37.20
24085;DHT22;12268;52.110;5.548;2023-06-14T13:55:11;34.50;36.50
24085;DHT22;12268;52.110;5.548;2023-06-14T13:57:37;34.50;36.20
24085;DHT22;12268;52.110;5.548;2023-06-14T14:00:03;34.20;36.00
24085;DHT22;12268;52.110;5.548;2023-06-14T14:02:28;34.20;35.90
24085;DHT22;12268;52.110;5.548;2023-06-14T14:04:55;33.70;35.90
24085;DHT22;12268;52.110;5.548;2023-06-14T14:07:21;34.30;35.80
24085;DHT22;12268;52.110;5.548;2023-06-14T14:09:47;33.90;35.80
24085;DHT22;12268;52.110;5.548;2023-06-14T14:12:13;33.50;35.40
24085;DHT22;12268;52.110;5.548;2023-06-14T14:14:39;33.40;36.70
24085;DHT22;12268;52.110;5.548;2023-06-14T14:17:05;33.70;35.90
24085;DHT22;12268;52.110;5.548;2023-06-14T14:19:32;33.70;36.00
24085;DHT22;12268;52.110;5.548;2023-06-14T14:21:57;34.50;35.70
24085;DHT22;12268;52.110;5.548;2023-06-14T14:24:23;34.60;35.10
24085;DHT22;12268;52.110;5.548;2023-06-14T14:26:48;34.70;35.30
24085;DHT22;12268;52.110;5.548;2023-06-14T14:29:15;34.30;34.80
24085;DHT22;12268;52.110;5.548;2023-06-14T14:31:41;34.00;35.50
24085;DHT22;12268;52.110;5.548;2023-06-14T14:34:06;33.80;36.10
24085;DHT22;12268;52.110;5.548;2023-06-14T14:36:32;33.60;35.80
24085;DHT22;12268;52.110;5.548;2023-06-14T14:39:03;33.30;35.80
24085;DHT22;12268;52.110;5.548;2023-06-14T14:41:29;33.00;36.90
24085;DHT22;12268;52.110;5.548;2023-06-14T14:43:54;33.10;37.80
24085;DHT22;12268;52.110;5.548;2023-06-14T14:46:20;33.00;36.90
24085;DHT22;12268;52.110;5.548;2023-06-14T14:48:46;33.00;37.10
24085;DHT22;12268;52.110;5.548;2023-06-14T14:51:11;33.30;36.50
24085;DHT22;12268;52.110;5.548;2023-06-14T14:53:37;33.20;35.20
24085;DHT22;12268;52.110;5.548;2023-06-14T14:56:02;32.60;36.50
24085;DHT22;12268;52.110;5.548;2023-06-14T14:58:28;32.80;36.80
24085;DHT22;12268;52.110;5.548;2023-06-14T15:00:53;33.10;37.70
24085;DHT22;12268;52.110;5.548;2023-06-14T15:03:19;33.50;36.90
24085;DHT22;12268;52.110;5.548;2023-06-14T15:05:44;33.80;36.50
24085;DHT22;12268;52.110;5.548;2023-06-14T15:08:10;33.20;37.00
24085;DHT22;12268;52.110;5.548;2023-06-14T15:10:39;32.90;37.30
24085;DHT22;12268;52.110;5.548;2023-06-14T15:13:07;32.60;38.30
24085;DHT22;12268;52.110;5.548;2023-06-14T15:15:33;32.70;37.70
24085;DHT22;12268;52.110;5.548;2023-06-14T15:17:59;32.20;38.40
24085;DHT22;12268;52.110;5.548;2023-06-14T15:20:25;32.20;38.80
24085;DHT22;12268;52.110;5.548;2023-06-14T15:22:51;32.60;39.00
24085;DHT22;12268;52.110;5.548;2023-06-14T15:25:17;32.80;37.70
24085;DHT22;12268;52.110;5.548;2023-06-14T15:27:43;32.50;38.60
24085;DHT22;12268;52.110;5.548;2023-06-14T15:30:09;32.70;38.50
24085;DHT22;12268;52.110;5.548;2023-06-14T15:32:34;32.20;39.10
24085;DHT22;12268;52.110;5.548;2023-06-14T15:35:00;32.10;40.30
24085;DHT22;12268;52.110;5.548;2023-06-14T15:37:25;31.30;39.80
24085;DHT22;12268;52.110;5.548;2023-06-14T15:39:51;31.30;39.70
24085;DHT22;12268;52.110;5.548;2023-06-14T15:42:16;31.40;40.20
24085;DHT22;12268;52.110;5.548;2023-06-14T15:44:42;32.20;39.90
24085;DHT22;12268;52.110;5.548;2023-06-14T15:47:08;31.80;39.90
24085;DHT22;12268;52.110;5.548;2023-06-14T15:49:33;31.60;39.60
24085;DHT22;12268;52.110;5.548;2023-06-14T15:51:59;31.80;38.40
24085;DHT22;12268;52.110;5.548;2023-06-14T15:54:26;31.60;39.50
24085;DHT22;12268;52.110;5.548;2023-06-14T15:56:52;31.70;39.20
24085;DHT22;12268;52.110;5.548;2023-06-14T15:59:17;31.40;40.30
24085;DHT22;12268;52.110;5.548;2023-06-14T16:01:43;31.80;39.20
24085;DHT22;12268;52.110;5.548;2023-06-14T16:04:08;31.90;39.90
24085;DHT22;12268;52.110;5.548;2023-06-14T16:06:34;31.90;39.10
24085;DHT22;12268;52.110;5.548;2023-06-14T16:09:02;32.30;39.20
24085;DHT22;12268;52.110;5.548;2023-06-14T16:11:28;32.40;38.50
24085;DHT22;12268;52.110;5.548;2023-06-14T16:13:54;31.30;39.00
24085;DHT22;12268;52.110;5.548;2023-06-14T16:16:21;31.30;39.30
24085;DHT22;12268;52.110;5.548;2023-06-14T16:18:47;31.10;40.00
24085;DHT22;12268;52.110;5.548;2023-06-14T16:21:13;30.60;40.30
24085;DHT22;12268;52.110;5.548;2023-06-14T16:23:38;30.30;40.60
24085;DHT22;12268;52.110;5.548;2023-06-14T16:26:05;29.80;40.30
24085;DHT22;12268;52.110;5.548;2023-06-14T16:28:31;29.40;41.60
24085;DHT22;12268;52.110;5.548;2023-06-14T16:30:59;29.30;41.50
24085;DHT22;12268;52.110;5.548;2023-06-14T16:33:25;29.10;43.00
24085;DHT22;12268;52.110;5.548;2023-06-14T16:35:50;29.00;41.30
24085;DHT22;12268;52.110;5.548;2023-06-14T16:38:16;29.10;41.70
24085;DHT22;12268;52.110;5.548;2023-06-14T16:40:41;29.40;41.00
24085;DHT22;12268;52.110;5.548;2023-06-14T16:43:07;29.60;41.10
24085;DHT22;12268;52.110;5.548;2023-06-14T16:45:32;29.60;40.10
24085;DHT22;12268;52.110;5.548;2023-06-14T16:47:58;30.00;40.50
24085;DHT22;12268;52.110;5.548;2023-06-14T16:50:23;30.20;41.40
24085;DHT22;12268;52.110;5.548;2023-06-14T16:52:49;30.00;41.80
24085;DHT22;12268;52.110;5.548;2023-06-14T16:55:14;29.30;40.50
24085;DHT22;12268;52.110;5.548;2023-06-14T16:57:40;28.80;40.70
24085;DHT22;12268;52.110;5.548;2023-06-14T17:00:06;28.60;41.50
24085;DHT22;12268;52.110;5.548;2023-06-14T17:02:32;28.30;40.60
24085;DHT22;12268;52.110;5.548;2023-06-14T17:04:57;28.40;41.10
24085;DHT22;12268;52.110;5.548;2023-06-14T17:07:23;28.40;42.40
24085;DHT22;12268;52.110;5.548;2023-06-14T17:09:49;28.80;42.20
24085;DHT22;12268;52.110;5.548;2023-06-14T17:12:14;29.20;42.10
24085;DHT22;12268;52.110;5.548;2023-06-14T17:14:40;29.20;42.70
24085;DHT22;12268;52.110;5.548;2023-06-14T17:17:06;28.60;42.00
24085;DHT22;12268;52.110;5.548;2023-06-14T17:19:32;28.20;42.50
24085;DHT22;12268;52.110;5.548;2023-06-14T17:21:58;28.10;43.90
24085;DHT22;12268;52.110;5.548;2023-06-14T17:24:23;28.00;43.70
24085;DHT22;12268;52.110;5.548;2023-06-14T17:26:49;27.80;44.00
24085;DHT22;12268;52.110;5.548;2023-06-14T17:29:15;28.10;44.20
24085;DHT22;12268;52.110;5.548;2023-06-14T17:31:40;28.20;43.40
24085;DHT22;12268;52.110;5.548;2023-06-14T17:34:06;27.90;43.80
24085;DHT22;12268;52.110;5.548;2023-06-14T17:36:31;27.40;43.90
24085;DHT22;12268;52.110;5.548;2023-06-14T17:38:57;27.40;44.60
24085;DHT22;12268;52.110;5.548;2023-06-14T17:41:22;27.30;44.60
24085;DHT22;12268;52.110;5.548;2023-06-14T17:43:49;27.30;45.00
24085;DHT22;12268;52.110;5.548;2023-06-14T17:46:16;27.50;45.40
24085;DHT22;12268;52.110;5.548;2023-06-14T17:48:42;27.50;45.10
24085;DHT22;12268;52.110;5.548;2023-06-14T17:51:07;27.30;45.20
24085;DHT22;12268;52.110;5.548;2023-06-14T17:53:33;27.30;45.80
24085;DHT22;12268;52.110;5.548;2023-06-14T17:56:01;27.20;46.00
24085;DHT22;12268;52.110;5.548;2023-06-14T17:58:28;26.90;46.30
24085;DHT22;12268;52.110;5.548;2023-06-14T18:00:53;26.80;47.10
24085;DHT22;12268;52.110;5.548;2023-06-14T18:03:19;26.60;46.80
24085;DHT22;12268;52.110;5.548;2023-06-14T18:05:45;26.50;47.10
24085;DHT22;12268;52.110;5.548;2023-06-14T18:08:11;26.20;47.70
24085;DHT22;12268;52.110;5.548;2023-06-14T18:10:37;26.00;47.80
24085;DHT22;12268;52.110;5.548;2023-06-14T18:13:03;26.00;48.30
24085;DHT22;12268;52.110;5.548;2023-06-14T18:15:29;26.20;48.30
24085;DHT22;12268;52.110;5.548;2023-06-14T18:17:54;26.20;48.40
24085;DHT22;12268;52.110;5.548;2023-06-14T18:20:21;26.40;48.50
24085;DHT22;12268;52.110;5.548;2023-06-14T18:22:47;26.40;48.50
24085;DHT22;12268;52.110;5.548;2023-06-14T18:25:13;26.30;48.50
24085;DHT22;12268;52.110;5.548;2023-06-14T18:27:39;26.30;48.40
24085;DHT22;12268;52.110;5.548;2023-06-14T18:30:06;26.30;48.60
24085;DHT22;12268;52.110;5.548;2023-06-14T18:32:31;26.20;48.30
24085;DHT22;12268;52.110;5.548;2023-06-14T18:34:59;26.10;48.50
24085;DHT22;12268;52.110;5.548;2023-06-14T18:37:24;26.00;48.70
24085;DHT22;12268;52.110;5.548;2023-06-14T18:39:50;25.80;49.10
24085;DHT22;12268;52.110;5.548;2023-06-14T18:42:16;25.70;49.50
24085;DHT22;12268;52.110;5.548;2023-06-14T18:44:42;26.10;49.40
24085;DHT22;12268;52.110;5.548;2023-06-14T18:47:07;26.10;49.10
24085;DHT22;12268;52.110;5.548;2023-06-14T18:49:33;26.10;49.70
24085;DHT22;12268;52.110;5.548;2023-06-14T18:51:59;26.10;49.30
24085;DHT22;12268;52.110;5.548;2023-06-14T18:54:25;26.10;49.50
24085;DHT22;12268;52.110;5.548;2023-06-14T18:56:51;26.20;50.20
24085;DHT22;12268;52.110;5.548;2023-06-14T18:59:17;26.20;49.70
24085;DHT22;12268;52.110;5.548;2023-06-14T19:01:43;26.30;50.20
24085;DHT22;12268;52.110;5.548;2023-06-14T19:04:08;26.40;49.70
24085;DHT22;12268;52.110;5.548;2023-06-14T19:06:34;26.20;49.70
24085;DHT22;12268;52.110;5.548;2023-06-14T19:08:59;26.20;49.80
24085;DHT22;12268;52.110;5.548;2023-06-14T19:11:25;26.10;50.30
24085;DHT22;12268;52.110;5.548;2023-06-14T19:13:50;26.00;50.40
24085;DHT22;12268;52.110;5.548;2023-06-14T19:16:16;26.00;50.40
24085;DHT22;12268;52.110;5.548;2023-06-14T19:18:42;26.20;49.90
24085;DHT22;12268;52.110;5.548;2023-06-14T19:21:07;26.10;50.10
24085;DHT22;12268;52.110;5.548;2023-06-14T19:23:33;26.10;50.20
24085;DHT22;12268;52.110;5.548;2023-06-14T19:25:58;26.20;50.20
24085;DHT22;12268;52.110;5.548;2023-06-14T19:28:24;26.40;50.20
24085;DHT22;12268;52.110;5.548;2023-06-14T19:30:51;26.40;49.90
24085;DHT22;12268;52.110;5.548;2023-06-14T19:33:16;26.30;50.00
24085;DHT22;12268;52.110;5.548;2023-06-14T19:35:42;26.30;50.20
24085;DHT22;12268;52.110;5.548;2023-06-14T19:38:08;26.40;50.90
24085;DHT22;12268;52.110;5.548;2023-06-14T19:40:34;26.60;51.20
24085;DHT22;12268;52.110;5.548;2023-06-14T19:42:59;26.60;50.70
24085;DHT22;12268;52.110;5.548;2023-06-14T19:45:25;26.50;51.00
24085;DHT22;12268;52.110;5.548;2023-06-14T19:47:51;26.50;51.20
24085;DHT22;12268;52.110;5.548;2023-06-14T19:50:16;26.40;51.40
24085;DHT22;12268;52.110;5.548;2023-06-14T19:52:42;26.10;51.60
24085;DHT22;12268;52.110;5.548;2023-06-14T19:55:07;26.00;52.10
24085;DHT22;12268;52.110;5.548;2023-06-14T19:57:33;25.80;52.30
24085;DHT22;12268;52.110;5.548;2023-06-14T19:59:59;25.80;52.80
24085;DHT22;12268;52.110;5.548;2023-06-14T20:02:25;25.80;53.10
24085;DHT22;12268;52.110;5.548;2023-06-14T20:04:51;25.70;53.50
24085;DHT22;12268;52.110;5.548;2023-06-14T20:07:16;25.50;53.20
24085;DHT22;12268;52.110;5.548;2023-06-14T20:09:42;25.40;53.60
24085;DHT22;12268;52.110;5.548;2023-06-14T20:12:07;25.30;53.90
24085;DHT22;12268;52.110;5.548;2023-06-14T20:14:33;25.40;54.10
24085;DHT22;12268;52.110;5.548;2023-06-14T20:16:58;25.30;53.60
24085;DHT22;12268;52.110;5.548;2023-06-14T20:19:24;25.20;54.30
24085;DHT22;12268;52.110;5.548;2023-06-14T20:21:50;25.30;54.20
24085;DHT22;12268;52.110;5.548;2023-06-14T20:24:15;25.10;54.10
24085;DHT22;12268;52.110;5.548;2023-06-14T20:26:41;25.00;54.20
24085;DHT22;12268;52.110;5.548;2023-06-14T20:29:06;24.90;54.60
24085;DHT22;12268;52.110;5.548;2023-06-14T20:31:32;24.90;55.10
24085;DHT22;12268;52.110;5.548;2023-06-14T20:33:57;24.80;55.20
24085;DHT22;12268;52.110;5.548;2023-06-14T20:36:23;24.70;55.00
24085;DHT22;12268;52.110;5.548;2023-06-14T20:38:49;24.70;55.60
24085;DHT22;12268;52.110;5.548;2023-06-14T20:41:14;24.80;55.00
24085;DHT22;12268;52.110;5.548;2023-06-14T20:43:40;24.70;55.20
24085;DHT22;12268;52.110;5.548;2023-06-14T20:46:07;24.60;55.50
24085;DHT22;12268;52.110;5.548;2023-06-14T20:48:33;24.50;55.80
24085;DHT22;12268;52.110;5.548;2023-06-14T20:50:59;24.40;55.30
24085;DHT22;12268;52.110;5.548;2023-06-14T20:53:25;24.40;55.50
24085;DHT22;12268;52.110;5.548;2023-06-14T20:55:51;24.20;55.70
24085;DHT22;12268;52.110;5.548;2023-06-14T20:58:17;23.90;55.90
24085;DHT22;12268;52.110;5.548;2023-06-14T21:00:43;24.10;56.00
24085;DHT22;12268;52.110;5.548;2023-06-14T21:03:10;24.20;56.00
24085;DHT22;12268;52.110;5.548;2023-06-14T21:05:36;24.20;56.40
24085;DHT22;12268;52.110;5.548;2023-06-14T21:08:02;24.40;56.20
24085;DHT22;12268;52.110;5.548;2023-06-14T21:10:27;24.40;56.10
24085;DHT22;12268;52.110;5.548;2023-06-14T21:12:53;24.20;56.00
24085;DHT22;12268;52.110;5.548;2023-06-14T21:15:21;24.10;56.40
24085;DHT22;12268;52.110;5.548;2023-06-14T21:17:50;24.20;56.90
24085;DHT22;12268;52.110;5.548;2023-06-14T21:20:16;24.40;56.50
24085;DHT22;12268;52.110;5.548;2023-06-14T21:22:41;24.20;56.90
24085;DHT22;12268;52.110;5.548;2023-06-14T21:25:07;24.00;57.20
24085;DHT22;12268;52.110;5.548;2023-06-14T21:27:33;23.90;57.60
24085;DHT22;12268;52.110;5.548;2023-06-14T21:29:58;24.00;57.80
24085;DHT22;12268;52.110;5.548;2023-06-14T21:32:24;24.10;57.40
24085;DHT22;12268;52.110;5.548;2023-06-14T21:34:49;24.10;57.00
24085;DHT22;12268;52.110;5.548;2023-06-14T21:37:15;23.90;57.60
24085;DHT22;12268;52.110;5.548;2023-06-14T21:39:40;23.80;57.60
24085;DHT22;12268;52.110;5.548;2023-06-14T21:42:06;23.70;58.40
24085;DHT22;12268;52.110;5.548;2023-06-14T21:44:33;23.70;59.00
24085;DHT22;12268;52.110;5.548;2023-06-14T21:46:59;23.60;59.30
24085;DHT22;12268;52.110;5.548;2023-06-14T21:49:24;23.60;59.60
24085;DHT22;12268;52.110;5.548;2023-06-14T21:51:50;23.40;59.30
24085;DHT22;12268;52.110;5.548;2023-06-14T21:54:15;23.30;58.70
24085;DHT22;12268;52.110;5.548;2023-06-14T21:56:41;23.20;59.00
24085;DHT22;12268;52.110;5.548;2023-06-14T21:59:06;23.10;59.00
24085;DHT22;12268;52.110;5.548;2023-06-14T22:01:32;23.00;59.10
24085;DHT22;12268;52.110;5.548;2023-06-14T22:03:57;23.20;59.60
24085;DHT22;12268;52.110;5.548;2023-06-14T22:06:23;23.30;59.50
24085;DHT22;12268;52.110;5.548;2023-06-14T22:08:48;23.40;59.40
24085;DHT22;12268;52.110;5.548;2023-06-14T22:11:14;23.40;59.50
24085;DHT22;12268;52.110;5.548;2023-06-14T22:13:40;23.30;59.30
24085;DHT22;12268;52.110;5.548;2023-06-14T22:16:05;23.30;59.60
24085;DHT22;12268;52.110;5.548;2023-06-14T22:18:35;23.30;59.80
24085;DHT22;12268;52.110;5.548;2023-06-14T22:21:01;22.90;61.00
24085;DHT22;12268;52.110;5.548;2023-06-14T22:23:27;22.80;61.20
24085;DHT22;12268;52.110;5.548;2023-06-14T22:26:02;22.80;61.80
24085;DHT22;12268;52.110;5.548;2023-06-14T22:28:28;22.70;62.30
24085;DHT22;12268;52.110;5.548;2023-06-14T22:31:05;22.60;62.90
24085;DHT22;12268;52.110;5.548;2023-06-14T22:33:34;22.50;63.50
24085;DHT22;12268;52.110;5.548;2023-06-14T22:36:05;22.40;64.40
24085;DHT22;12268;52.110;5.548;2023-06-14T22:38:34;22.40;64.90
24085;DHT22;12268;52.110;5.548;2023-06-14T22:41:01;22.30;65.80
24085;DHT22;12268;52.110;5.548;2023-06-14T22:43:27;22.30;67.40
24085;DHT22;12268;52.110;5.548;2023-06-14T22:45:53;22.20;68.90
24085;DHT22;12268;52.110;5.548;2023-06-14T22:48:19;22.20;69.40
24085;DHT22;12268;52.110;5.548;2023-06-14T22:50:45;22.10;69.70
24085;DHT22;12268;52.110;5.548;2023-06-14T22:53:11;22.10;70.30